Latest Coastal Weather Observations for Portland Airport

IDS60701

Issued at 6:11 pm CST Friday 23 June 2017 (issued every 10 minutes, with the page automatically refreshed every 10 minutes)

About coastal observations | Map of coastal stations | Coastal observations for SA | Marine services | Other Formats
Station Details ID: 090171 Name: CASHMORE AIRPORT Lat: -38.31 Lon: 141.47 Height: 80.9 m
Data from the previous 72 hours. | See also: Recent months at Portland Airport
Date/Time
CST
Temp
°C
Wind Pressure Rain since
9am
mm
Weather Cloud Vis
km
Sea
Height
m
Swell
Dir  Spd
kts
Gust
kts
hPa Trend Height
m
Period
s
Dir
23/06:00pm 11.7 W 9 14 1014.1 - 2.4 - Partly cloudy 10 - - - -
23/05:37pm 11.1 W 11 15 1014.0 - 2.4 - Partly cloudy 10 - - - -
23/05:30pm 11.1 WSW 13 19 1013.9 - 2.4 Recent precip. Cloudy 8 - - - -
23/05:00pm 11.4 WSW 10 16 1013.8 - 1.8 - Partly cloudy 10 - - - -
23/04:50pm 11.3 WSW 11 17 1013.9 - 1.6 - Partly cloudy 8 - - - -
23/04:32pm 11.7 SW 15 22 1013.8 - 1.2 - Partly cloudy 6 - - - -
23/04:30pm 11.8 SW 16 23 1013.8 - 0.8 - Partly cloudy 9 - - - -
23/04:00pm 13.9 W 15 21 1013.2 - 0.6 - Partly cloudy 10 - - - -
23/03:30pm 14.1 W 16 23 1013.2 - 0.6 - Partly cloudy 10 - - - -
23/03:19pm 14.3 W 15 25 1013.1 - 0.6 - Partly cloudy 10 - - - -
23/03:00pm 14.6 W 16 22 1013.1 - 0.6 - Partly cloudy 10 - - - -
23/02:30pm 14.5 W 17 22 1013.1 - 0.6 - Mostly clear 10 - - - -
23/02:03pm 14.4 W 15 26 1013.0 - 0.6 - Partly cloudy 10 - - - -
23/02:00pm 14.5 W 15 23 1013.0 - 0.6 - Partly cloudy 10 - - - -
23/01:30pm 14.0 W 14 20 1013.2 - 0.6 - Partly cloudy 10 - - - -
23/01:00pm 13.3 NW 14 20 1013.4 - 0.6 - Partly cloudy 10 - - - -
23/12:30pm 13.5 NW 15 19 1013.7 - 0.6 - - 10 - - - -
23/12:00pm 13.3 NW 11 17 1014.0 - 0.6 - - 10 - - - -
23/11:30am 11.8 NNW 11 16 1014.4 - 0.6 Recent precip. Mostly clear 10 - - - -
23/11:00am 10.2 NNW 10 13 1015.0 - 0.6 - Cloudy 10 - - - -
23/10:30am 10.2 NW 10 17 1015.5 - 0.2 - Partly cloudy 10 - - - -
23/10:00am 9.7 NNW 10 14 1015.4 - 0.0 - Partly cloudy 10 - - - -
23/09:30am 10.1 NW 9 13 1015.5 - 0.0 - Partly cloudy 10 - - - -
23/09:00am 9.2 NNW 11 16 1015.6 - 0.0 - Cloudy 10 - - - -
23/08:30am 8.3 NNW 9 11 1015.7 - 0.0 - Mostly cloudy 10 - - - -
23/08:00am 7.5 NNW 9 12 1015.7 - 0.0 - - 10 - - - -
23/07:30am 7.1 NNW 9 12 1015.6 - 0.0 - - 10 - - - -
23/07:00am 7.3 NNW 10 13 1015.8 - 0.0 - - 10 - - - -
23/06:30am 8.0 NNW 10 15 1016.0 - 0.0 - - 10 - - - -
23/06:00am 8.1 NNW 10 15 1016.1 - 0.0 - - 10 - - - -
23/05:30am 8.4 NNW 11 16 1016.1 - 0.0 - - 10 - - - -
23/05:00am 8.2 NNW 9 13 1016.3 - 0.0 - - 10 - - - -
23/04:30am 8.2 NNW 10 15 1016.4 - 0.0 - - 10 - - - -
23/04:00am 8.4 NNW 11 15 1016.7 - 0.0 - - 10 - - - -
23/03:30am 8.4 NNW 11 17 1016.9 - 0.0 - - 10 - - - -
23/03:00am 8.1 N 9 13 1017.3 - 0.0 - - 10 - - - -
23/02:30am 7.5 N 7 10 1017.9 - 0.0 - - 10 - - - -
23/02:00am 7.0 N 7 9 1018.1 - 0.0 - - 10 - - - -
23/01:30am 6.7 N 7 10 1018.4 - 0.0 - - 10 - - - -
23/01:00am 5.7 NNW 4 6 1018.7 - 0.0 - - 10 - - - -
23/12:30am 6.7 NNW 5 6 1019.1 - 0.0 - - 10 - - - -
23/12:00am 7.8 N 7 9 1019.2 - 0.0 - - 10 - - - -
 
Date/Time
CST
Temp
°C
Wind Pressure Rain since
9am
mm
Weather Cloud Vis
km
Sea
Height
m
Swell
Dir  Spd
kts
Gust
kts
hPa Trend Height
m
Period
s
Dir
22/11:30pm 8.3 N 6 9 1019.9 - 0.0 - Partly cloudy 10 - - - -
22/11:00pm 8.3 N 7 8 1020.3 - 0.0 - - 10 - - - -
22/10:30pm 7.9 NNW 7 8 1020.5 - 0.0 - - 10 - - - -
22/10:00pm 7.9 N 6 8 1020.9 - 0.0 - - 10 - - - -
22/09:30pm 8.2 N 6 7 1021.1 - 0.0 - - 10 - - - -
22/09:00pm 8.1 N 5 6 1021.6 - 0.0 - - 10 - - - -
22/08:30pm 8.7 N 5 6 1021.8 - 0.0 - Mostly cloudy 10 - - - -
22/08:00pm 9.3 NNW 6 7 1021.9 - 0.0 - - 10 - - - -
22/07:30pm 8.9 N 6 7 1021.9 - 0.0 - - 10 - - - -
22/07:00pm 9.2 NNW 5 6 1022.0 - 0.0 - - 10 - - - -
22/06:30pm 9.6 N 5 6 1022.0 - 0.0 - - 10 - - - -
22/06:00pm 10.0 N 6 7 1022.1 - 0.0 - - 10 - - - -
22/05:30pm 10.5 N 5 6 1022.3 - 0.0 - Cloudy 10 - - - -
22/05:00pm 11.4 N 5 6 1022.3 - 0.0 - Partly cloudy 10 - - - -
22/04:30pm 12.0 N 5 7 1022.2 - 0.0 - Partly cloudy 10 - - - -
22/04:00pm 13.4 NNW 6 8 1022.3 - 0.0 - Partly cloudy 10 - - - -
22/03:30pm 13.8 NNW 9 13 1022.2 - 0.0 - - 10 - - - -
22/03:00pm 14.4 NNW 9 15 1022.1 - 0.0 - - 10 - - - -
22/02:30pm 14.6 NNW 9 13 1022.6 - 0.0 - - 10 - - - -
22/02:00pm 14.7 NNW 9 13 1023.0 - 0.0 - - 10 - - - -
22/01:30pm 14.3 NNW 9 13 1023.5 - 0.0 - Partly cloudy 10 - - - -
22/01:00pm 14.8 NNW 9 12 1024.0 - 0.0 - Partly cloudy 10 - - - -
22/12:30pm 14.5 NNW 7 11 1024.5 - 0.0 - Partly cloudy 10 - - - -
22/12:00pm 13.7 NW 6 8 1025.0 - 0.0 - Partly cloudy 10 - - - -
22/11:30am 13.5 NW 3 5 1025.7 - 0.0 - Cloudy 10 - - - -
22/11:00am 12.5 NNW 6 8 1026.2 - 0.0 - Partly cloudy 10 - - - -
22/10:30am 11.0 N 6 10 1026.5 - 0.0 - Partly cloudy 10 - - - -
22/10:00am 10.9 N 7 10 1026.8 - 0.0 - Cloudy 10 - - - -
22/09:30am 9.8 N 5 7 1026.8 - 0.0 - Partly cloudy 10 - - - -
22/09:00am 9.2 N 6 8 1026.7 - 0.0 - Partly cloudy 10 - - - -
22/08:30am 8.5 N 6 8 1026.8 - 0.0 - Cloudy 10 - - - -
22/08:00am 7.8 N 5 7 1026.9 - 0.0 - Partly cloudy 10 - - - -
22/07:30am 7.4 N 4 5 1026.9 - 0.0 - Partly cloudy 10 - - - -
22/07:00am 8.3 NNE 5 6 1026.6 - 0.0 - Partly cloudy 10 - - - -
22/06:30am 8.8 N 3 4 1026.8 - 0.0 - Partly cloudy 10 - - - -
22/06:00am 8.7 CALM 0 0 1026.8 - 0.0 - Cloudy 10 - - - -
22/05:30am 9.0 N 3 5 1026.7 - 0.0 - Cloudy 10 - - - -
22/05:00am 9.2 CALM 0 0 1026.7 - 0.0 - Cloudy 10 - - - -
22/04:30am 9.1 N 3 5 1026.8 - 0.0 - Partly cloudy 10 - - - -
22/04:00am 9.1 N 4 5 1026.7 - 0.0 - Cloudy 10 - - - -
22/03:30am 8.8 CALM 0 0 1027.0 - 0.0 - Cloudy 10 - - - -
22/03:00am 8.6 CALM 0 0 1027.1 - 0.0 - Cloudy 10 - - - -
22/02:30am 8.5 NNE 2 3 1027.3 - 0.0 - Cloudy 10 - - - -
22/02:00am 8.2 CALM 0 0 1027.3 - 0.0 - Partly cloudy 10 - - - -
22/01:30am 8.5 NNE 4 6 1027.3 - 0.0 - Partly cloudy 10 - - - -
22/01:00am 8.3 N 5 5 1027.6 - 0.0 - Partly cloudy 10 - - - -
22/12:30am 8.4 NNE 4 4 1027.7 - 0.0 - Partly cloudy 10 - - - -
22/12:00am 8.4 CALM 0 4 1028.2 - 0.0 - Partly cloudy 10 - - - -
 
Date/Time
CST
Temp
°C
Wind Pressure Rain since
9am
mm
Weather Cloud Vis
km
Sea
Height
m
Swell
Dir  Spd
kts
Gust
kts
hPa Trend Height
m
Period
s
Dir
21/11:30pm 8.2 CALM 0 0 1028.4 - 0.0 - Cloudy 10 - - - -
21/11:00pm 8.3 CALM 0 0 1028.5 - 0.0 - Partly cloudy 10 - - - -
21/10:30pm 8.4 N 4 5 1028.6 - 0.0 - Partly cloudy 10 - - - -
21/10:00pm 8.5 N 3 4 1028.9 - 0.0 - Cloudy 10 - - - -
21/09:30pm 8.8 CALM 0 0 1029.1 - 0.0 - Cloudy 10 - - - -
21/09:00pm 8.9 N 1 4 1029.2 - 0.0 - Cloudy 10 - - - -
21/08:30pm 9.4 N 5 5 1029.3 - 0.0 - Mostly cloudy 10 - - - -
21/08:05pm 9.4 N 3 4 1029.4 - 0.0 - Cloudy 10 - - - -
21/08:00pm 9.4 N 3 4 1029.4 - 0.0 - Cloudy 10 - - - -
21/07:46pm 9.3 CALM 0 0 1029.3 - 0.0 - Cloudy 3 - - - -
21/07:30pm 9.4 CALM 0 0 1029.3 - 0.0 - Cloudy 10 - - - -
21/07:00pm 9.6 CALM 0 0 1029.2 - 0.0 - Cloudy 10 - - - -
21/06:30pm 9.9 CALM 0 0 1028.9 - 0.0 - Cloudy 10 - - - -
21/06:00pm 10.3 CALM 0 3 1028.7 - 0.0 - Cloudy 10 - - - -
21/05:30pm 10.3 E 1 4 1028.6 - 0.0 - Cloudy 10 - - - -
21/05:00pm 10.8 CALM 0 0 1028.7 - 0.0 - Cloudy 10 - - - -
21/04:30pm 11.5 CALM 0 0 1028.5 - 0.0 - Cloudy 10 - - - -
21/04:00pm 11.9 CALM 0 0 1028.5 - 0.0 - Cloudy 10 - - - -
21/03:30pm 12.2 CALM 0 0 1028.5 - 0.0 - Cloudy 10 - - - -
21/03:00pm 12.2 CALM 0 0 1028.4 - 0.0 - Cloudy 10 - - - -
21/02:30pm 12.4 SSE 4 6 1028.4 - 0.0 - Cloudy 10 - - - -
21/02:00pm 12.2 SSW 4 6 1028.6 - 0.0 - Cloudy 10 - - - -
21/01:30pm 12.5 SW 3 5 1028.6 - 0.0 - Cloudy 10 - - - -
21/01:00pm 12.4 S 2 6 1028.7 - 0.0 - Cloudy 10 - - - -
21/12:30pm 12.4 S 3 5 1028.8 - 0.0 - Cloudy 10 - - - -
21/12:00pm 12.4 SSW 5 7 1029.2 - 0.0 - Cloudy 10 - - - -
21/11:30am 12.6 SSW 5 7 1029.4 - 0.0 - Cloudy 10 - - - -
21/11:00am 12.4 SW 4 5 1029.6 - 0.0 - Partly cloudy 10 - - - -
21/10:30am 12.5 SE 4 5 1029.5 - 0.0 - Partly cloudy 10 - - - -
21/10:00am 12.2 S 2 5 1029.5 - 0.0 - Cloudy 10 - - - -
21/09:30am 11.8 CALM 0 3 1029.4 - 0.0 - Partly cloudy 10 - - - -
21/09:00am 11.5 CALM 0 4 1029.2 - 0.0 - Partly cloudy 10 - - - -
21/08:30am 10.7 CALM 0 4 1028.9 - 3.2 - Cloudy 10 - - - -
21/08:00am 10.3 SSW 1 3 1028.8 - 3.2 - Cloudy 10 - - - -
21/07:30am 10.2 CALM 0 3 1028.5 - 3.2 - Cloudy 10 - - - -
21/07:00am 10.4 CALM 0 3 1028.2 - 3.2 - Cloudy 10 - - - -
21/06:30am 10.2 CALM 0 0 1028.2 - 3.2 - Partly cloudy 10 - - - -
21/06:00am 10.1 CALM 0 0 1027.7 - 3.2 - Partly cloudy 10 - - - -
21/05:30am 10.3 CALM 0 0 1027.4 - 3.2 - Mostly cloudy 10 - - - -
21/05:00am 10.4 SSW 3 4 1027.3 - 3.2 - Partly cloudy 10 - - - -
21/04:30am 10.2 WSW 3 4 1027.1 - 3.2 - Partly cloudy 10 - - - -
21/04:00am 10.4 SW 3 4 1026.8 - 3.2 - Cloudy 10 - - - -
21/03:30am 10.5 CALM 0 0 1026.6 - 3.2 - Partly cloudy 10 - - - -
21/03:00am 10.1 SW 3 5 1026.4 - 3.2 - Partly cloudy 10 - - - -
21/02:30am 10.2 WSW 2 4 1026.4 - 3.2 - Cloudy 10 - - - -
21/02:00am 10.3 CALM 0 0 1026.2 - 3.2 - Partly cloudy 10 - - - -
21/01:30am 10.3 WSW 3 5 1026.0 - 3.2 - Cloudy 10 - - - -
21/01:00am 10.5 W 3 4 1025.9 - 3.2 - Cloudy 10 - - - -
21/12:30am 10.6 WSW 4 5 1025.8 - 3.2 - Cloudy 10 - - - -
21/12:00am 10.7 WSW 5 7 1025.8 - 3.2 - Cloudy 10 - - - -
 
Date/Time
CST
Temp
°C
Wind Pressure Rain since
9am
mm
Weather Cloud Vis
km
Sea
Height
m
Swell
Dir  Spd
kts
Gust
kts
hPa Trend Height
m
Period
s
Dir
20/11:30pm 10.8 SSW 6 9 1025.7 - 3.2 Recent precip. Cloudy 10 - - - -
20/11:28pm 10.8 SSW 6 9 1025.6 - 3.2 - Partly cloudy 10 - - - -
20/11:27pm 10.8 SSW 5 9 1025.6 - 3.2 - Partly cloudy 10 - - - -
20/11:00pm 11.5 SSW 6 9 1025.6 - 3.0 - Partly cloudy 4 - - - -
20/10:30pm 11.8 SSW 9 13 1025.3 - 1.8 - Cloudy 5 - - - -
20/10:02pm 12.6 W 10 14 1025.0 - 1.0 - Partly cloudy 6 - - - -
20/10:00pm 12.7 W 10 16 1025.0 - 0.6 - Partly cloudy 7 - - - -
20/09:57pm 12.8 W 10 16 1024.9 - 0.2 - Partly cloudy 10 - - - -
20/09:30pm 12.4 NNW 7 10 1024.6 - 0.0 - Partly cloudy 10 - - - -
20/09:00pm 12.8 NW 10 15 1024.6 - 0.0 - Partly cloudy 10 - - - -
20/08:30pm 12.1 NW 8 11 1024.4 - 0.0 - Partly cloudy 10 - - - -
20/08:00pm 12.6 NNW 8 11 1024.5 - 0.0 - Partly cloudy 10 - - - -
20/07:30pm 13.2 NW 11 16 1024.3 - 0.0 - Partly cloudy 10 - - - -
20/07:00pm 12.7 NW 9 14 1024.1 - 0.0 - Partly cloudy 10 - - - -
20/06:30pm 12.5 NW 9 12 1024.0 - 0.0 - - 10 - - - -
20/06:00pm 13.4 NW 10 16 1023.7 - 0.0 - Partly cloudy 10 - - - -

Other Formats:

Comma delimited format used in spreadsheet applications
http://www.bom.gov.au/fwo/IDS60701/IDS60701.94828.axf

JavaScript Object Notation format (JSON) in row-major order
http://www.bom.gov.au/fwo/IDS60701/IDS60701.94828.json